Time;durP1;ratioP1;P1;durP2;ratioP2;P2;SDS_P1;SDS_P2;PMS_P1;PMS_P2;Temp;Humidity;BMP_temperature;BMP_pressure;BME280_temperature;BME280_humidity;BME280_pressure;Samples;Min_cycle;Max_cycle;Signal;HPM_P1;HPM_P2
2023/05/11 00:02:27;;;;;;;13.68;11.95;;;15.80;99.90;;;16.13;94.62;101346.78;5096684;28;20134;-74
2023/05/11 00:04:57;;;;;;;14.68;13.02;;;15.80;99.90;;;16.06;94.52;101350.50;5096681;28;20044;-73
2023/05/11 00:07:26;;;;;;;17.35;12.50;;;15.70;99.90;;;15.76;94.35;101322.59;5114857;28;20401;-74
2023/05/11 00:09:54;;;;;;;16.58;14.30;;;15.50;99.90;;;15.64;94.51;101340.63;5114640;28;20051;-73
2023/05/11 00:12:23;;;;;;;16.90;14.50;;;15.40;99.90;;;15.33;95.92;101345.53;5110567;28;20089;-73
2023/05/11 00:14:51;;;;;;;19.80;15.90;;;15.10;99.90;;;15.00;97.87;101338.94;5114612;28;20405;-74
2023/05/11 00:17:19;;;;;;;20.23;16.77;;;14.70;99.90;;;15.11;98.57;101345.00;5114655;28;20048;-73
2023/05/11 00:19:48;;;;;;;18.85;16.60;;;14.70;99.90;;;15.22;98.82;101340.38;5114363;28;20039;-73
2023/05/11 00:22:17;;;;;;;18.90;16.00;;;14.90;99.90;;;15.28;98.71;101340.28;5114333;28;20499;-74
2023/05/11 00:24:46;;;;;;;19.95;16.67;;;15.00;99.90;;;15.28;98.69;101332.28;5114842;28;20165;-73
2023/05/11 00:27:14;;;;;;;20.90;18.08;;;15.00;99.90;;;15.34;98.60;101339.31;5114504;28;20050;-73
2023/05/11 00:29:42;;;;;;;23.95;17.83;;;15.00;99.90;;;15.41;98.42;101345.44;5096426;28;20142;-73
2023/05/11 00:32:11;;;;;;;27.08;20.42;;;15.10;99.90;;;15.41;98.05;101340.09;5114420;28;20607;-72
2023/05/11 00:34:39;;;;;;;23.98;20.60;;;15.10;99.90;;;15.43;97.80;101341.84;5114307;28;20115;-71
2023/05/11 00:37:07;;;;;;;26.08;19.98;;;15.20;99.90;;;15.46;97.67;101338.25;5110321;28;20447;-72
2023/05/11 00:39:39;;;;;;;25.40;20.17;;;15.20;99.90;;;15.45;97.29;101334.69;5113918;28;20101;-71
2023/05/11 00:42:08;;;;;;;25.88;20.17;;;15.20;99.90;;;15.49;97.44;101343.53;5087500;28;20055;-72
2023/05/11 00:44:36;;;;;;;27.23;20.85;;;15.20;99.90;;;15.45;97.47;101339.19;5114069;28;20126;-71
2023/05/11 00:47:04;;;;;;;27.35;21.58;;;15.20;99.90;;;15.51;97.65;101341.72;5095844;28;20495;-71
2023/05/11 00:49:33;;;;;;;27.40;21.63;;;15.20;99.90;;;15.48;97.35;101336.44;5113437;28;20138;-72
2023/05/11 00:52:02;;;;;;;26.42;21.30;;;15.20;99.90;;;15.38;97.16;101336.56;5113656;28;20488;-71
2023/05/11 00:54:31;;;;;;;25.52;21.05;;;15.20;99.90;;;15.22;97.67;101344.81;5113939;28;20126;-71
2023/05/11 00:57:01;;;;;;;27.23;21.08;;;15.00;99.90;;;15.23;98.13;101320.81;5113941;28;20065;-71
2023/05/11 00:59:30;;;;;;;22.40;19.00;;;15.00;99.90;;;15.23;98.34;101334.13;5110220;28;20039;-71
2023/05/11 01:01:58;;;;;;;24.20;20.02;;;15.00;99.90;;;15.34;98.44;101336.63;5113704;28;20278;-72
2023/05/11 01:04:27;;;;;;;21.77;18.23;;;15.10;99.90;;;15.23;98.53;101325.28;5113696;28;20465;-73
2023/05/11 01:07:05;;;;;;;21.73;18.65;;;15.10;99.90;;;15.41;98.56;101340.09;5095420;28;20126;-73
2023/05/11 01:09:48;;;;;;;22.80;17.65;;;15.10;99.90;;;15.42;98.77;101342.75;5083584;28;20060;-74
2023/05/11 01:12:26;;;;;;;20.88;17.58;;;15.10;99.90;;;15.45;99.00;101342.69;5084857;28;20047;-73
2023/05/11 01:15:03;;;;;;;23.45;18.30;;;15.10;99.90;;;15.37;99.06;101339.25;5095173;28;20092;-73
2023/05/11 01:17:43;;;;;;;22.33;17.80;;;15.10;99.90;;;15.39;99.61;101337.44;5089713;28;20052;-74
2023/05/11 01:20:18;;;;;;;22.15;17.80;;;15.10;99.90;;;15.26;99.58;101342.09;5095314;28;20396;-73
2023/05/11 01:23:24;;;;;;;23.00;18.13;;;15.00;99.90;;;15.19;100.00;101335.09;5075167;28;20044;-71
2023/05/11 01:26:10;;;;;;;21.02;17.95;;;14.80;99.90;;;15.20;100.00;101330.66;5111092;28;20067;-72
2023/05/11 01:29:19;;;;;;;20.77;17.92;;;14.80;99.90;;;15.32;100.00;101322.47;5088867;28;20098;-71
2023/05/11 01:31:50;;;;;;;24.42;17.75;;;14.90;99.90;;;15.46;100.00;101338.25;5085437;28;20423;-73
2023/05/11 01:34:25;;;;;;;21.42;17.80;;;15.10;99.90;;;14.79;99.76;101211.41;5113405;28;20048;-73
2023/05/11 01:36:58;;;;;;;23.40;18.42;;;15.20;99.90;;;15.47;99.48;101335.56;5109591;28;20092;-74
2023/05/11 01:39:35;;;;;;;21.60;18.15;;;15.20;99.90;;;15.51;99.50;101326.59;5113022;28;20063;-73
2023/05/11 01:42:09;;;;;;;20.98;17.50;;;15.20;99.90;;;15.51;99.81;101336.38;5095053;28;20053;-73
2023/05/11 01:44:44;;;;;;;21.08;17.23;;;15.20;99.90;;;15.53;100.00;101334.56;5100042;28;20117;-74
2023/05/11 01:47:16;;;;;;;24.80;18.05;;;15.20;99.90;;;15.67;99.48;101335.22;5113395;28;20040;-73
2023/05/11 01:49:46;;;;;;;22.98;19.42;;;15.30;99.90;;;15.74;99.04;101336.84;5113182;28;20084;-74
2023/05/11 01:52:15;;;;;;;20.58;17.98;;;15.40;99.90;;;15.81;98.72;101330.53;5112929;28;20490;-74
2023/05/11 01:54:44;;;;;;;21.77;17.38;;;15.50;99.90;;;15.89;98.49;101336.59;5113072;28;20040;-73
2023/05/11 01:57:14;;;;;;;21.30;18.20;;;15.50;99.90;;;16.00;98.05;101350.59;5113121;28;20111;-74
2023/05/11 01:59:43;;;;;;;19.67;16.23;;;15.60;99.90;;;16.03;97.49;101337.19;5074824;28;20059;-74
2023/05/11 02:02:14;;;;;;;21.17;17.13;;;15.70;99.90;;;16.09;97.08;101339.75;5116745;28;20043;-74
2023/05/11 02:04:44;;;;;;;22.73;18.13;;;15.70;99.90;;;16.06;96.99;101337.16;5099026;28;20120;-74
2023/05/11 02:07:14;;;;;;;20.88;16.85;;;15.70;99.90;;;16.14;96.83;101348.56;5099188;28;20048;-74
2023/05/11 02:09:44;;;;;;;21.73;17.20;;;15.80;99.90;;;16.18;96.46;101348.44;5098832;28;20063;-73
2023/05/11 02:12:14;;;;;;;22.83;18.05;;;15.80;99.90;;;16.26;96.34;101353.63;5099051;28;20545;-73
2023/05/11 02:14:44;;;;;;;21.08;16.88;;;15.90;99.90;;;16.18;95.88;101358.28;5086835;28;20105;-73
2023/05/11 02:17:16;;;;;;;21.25;17.90;;;15.90;99.90;;;16.26;95.71;101348.31;5087177;28;20056;-74
2023/05/11 02:19:47;;;;;;;23.08;17.25;;;15.90;99.90;;;16.17;95.44;101348.50;5090586;28;20048;-74
2023/05/11 02:22:16;;;;;;;23.88;17.83;;;15.90;99.90;;;16.19;95.73;101344.00;5098795;28;20122;-73
2023/05/11 02:24:45;;;;;;;23.88;18.17;;;15.90;99.90;;;15.88;96.38;101349.06;5116748;28;20387;-74
2023/05/11 02:27:14;;;;;;;21.40;18.08;;;15.60;99.90;;;15.96;96.58;101336.44;5098434;28;20086;-73
2023/05/11 02:29:42;;;;;;;22.75;17.75;;;15.70;99.90;;;16.03;96.31;101332.75;5116717;28;20054;-73
2023/05/11 02:32:18;;;;;;;21.58;17.88;;;15.70;99.90;;;16.21;96.20;101355.53;5098531;28;20127;-74
2023/05/11 02:34:55;;;;;;;22.20;17.30;;;15.80;99.90;;;16.23;96.05;101351.03;5087595;28;20055;-75
2023/05/11 02:37:25;;;;;;;21.65;18.10;;;15.90;99.90;;;16.27;95.85;101350.97;5090235;28;20171;-74
2023/05/11 02:40:01;;;;;;;23.15;17.33;;;15.90;99.90;;;16.25;95.52;101354.56;5094920;28;20071;-73
2023/05/11 02:42:36;;;;;;;25.73;18.90;;;15.90;99.90;;;16.30;95.24;101351.81;5078734;28;20432;-74
2023/05/11 02:45:08;;;;;;;23.80;18.90;;;16.00;99.90;;;16.24;94.81;101344.78;5098252;28;20043;-74
2023/05/11 02:47:43;;;;;;;23.45;19.40;;;16.00;99.90;;;16.27;94.70;101358.97;5116545;28;20043;-73
2023/05/11 02:50:13;;;;;;;22.42;18.70;;;16.00;99.90;;;15.98;94.81;101317.75;5091108;28;20139;-74
2023/05/11 02:52:47;;;;;;;24.63;18.92;;;15.90;99.90;;;16.19;94.94;101360.03;5095827;28;20075;-74
2023/05/11 02:55:17;;;;;;;27.52;20.00;;;15.90;99.90;;;16.19;94.87;101358.25;5098360;28;20086;-73
2023/05/11 02:57:46;;;;;;;24.17;19.00;;;15.90;99.90;;;16.03;95.43;101363.88;5116260;28;20040;-74
2023/05/11 03:00:16;;;;;;;24.75;19.60;;;15.70;99.90;;;15.90;96.08;101357.91;5097917;28;20055;-74
2023/05/11 03:02:46;;;;;;;23.25;19.52;;;15.60;99.90;;;15.84;96.90;101357.13;5086243;28;20062;-73
2023/05/11 03:05:17;;;;;;;27.58;18.92;;;15.50;99.90;;;15.87;97.30;101355.28;5094220;28;20050;-73
2023/05/11 03:07:46;;;;;;;27.45;19.65;;;15.50;99.90;;;15.84;97.57;101365.13;5097761;28;20047;-74
2023/05/11 03:10:15;;;;;;;24.80;19.83;;;15.40;99.90;;;15.80;97.66;101353.63;5085949;28;20052;-74
2023/05/11 03:12:45;;;;;;;26.70;19.95;;;15.40;99.90;;;15.74;97.81;101344.84;5093676;28;20572;-74
2023/05/11 03:15:16;;;;;;;27.70;21.48;;;15.40;99.90;;;15.79;97.75;101356.34;5094293;28;20382;-74
2023/05/11 03:17:50;;;;;;;28.45;19.95;;;15.50;99.90;;;15.95;97.52;101355.16;5091134;28;20053;-74
2023/05/11 03:20:21;;;;;;;28.35;21.70;;;15.50;99.90;;;15.36;96.87;101252.19;5090483;28;20404;-73
2023/05/11 03:22:50;;;;;;;27.50;20.90;;;15.60;99.90;;;15.89;96.87;101341.94;5094189;28;20055;-73
2023/05/11 03:25:20;;;;;;;28.33;20.92;;;15.60;99.90;;;15.97;96.91;101354.22;5085821;28;20044;-73
2023/05/11 03:27:50;;;;;;;30.77;20.83;;;15.60;99.90;;;16.07;96.77;101352.25;5095260;28;20064;-73
2023/05/11 03:30:20;;;;;;;;;;;15.70;99.90;;;16.11;96.51;101353.94;5086315;28;20055;-73
2023/05/11 03:32:52;;;;;;;29.00;20.45;;;15.80;99.90;;;16.13;96.38;101357.47;5095201;28;19973;-74
2023/05/11 03:35:23;;;;;;;29.67;21.17;;;15.80;99.90;;;16.15;96.22;101347.63;5090027;28;20040;-74
2023/05/11 03:37:55;;;;;;;28.52;21.45;;;15.80;99.90;;;16.12;95.97;101353.06;5093838;28;20050;-73
2023/05/11 03:40:30;;;;;;;31.92;22.10;;;15.90;99.90;;;16.14;96.00;101345.91;5093775;28;20048;-73
2023/05/11 03:43:03;;;;;;;30.27;22.23;;;15.90;99.90;;;16.17;95.93;101340.47;5085660;28;20048;-73
2023/05/11 03:45:34;;;;;;;28.98;21.52;;;15.80;99.90;;;16.22;95.61;101338.59;5090318;28;20441;-74
2023/05/11 03:48:08;;;;;;;27.83;20.63;;;15.90;99.90;;;16.19;95.83;101349.34;5093566;28;20050;-74
2023/05/11 03:50:39;;;;;;;28.48;22.13;;;15.80;99.90;;;16.10;96.15;101330.84;5085479;28;20056;-72
2023/05/11 03:53:07;;;;;;;28.75;22.25;;;15.80;99.90;;;16.15;96.14;101343.19;5095124;28;20427;-73
2023/05/11 03:55:35;;;;;;;29.48;21.80;;;15.80;99.90;;;16.25;96.47;101338.53;5085389;28;20055;-74
2023/05/11 03:58:07;;;;;;;26.77;20.58;;;15.90;99.90;;;16.29;96.17;101350.94;5094445;28;20046;-74
2023/05/11 04:00:39;;;;;;;31.33;23.23;;;15.90;99.90;;;16.18;96.16;101320.91;5073201;28;20436;-74
2023/05/11 04:03:09;;;;;;;29.52;21.63;;;15.90;99.90;;;16.28;96.27;101335.81;5093079;28;20048;-73
2023/05/11 04:05:39;;;;;;;31.00;23.67;;;15.90;99.90;;;16.32;96.11;101342.84;5085230;28;20055;-73
2023/05/11 04:08:09;;;;;;;;;;;16.00;99.90;;;16.26;96.08;101340.28;5093761;28;20048;-74
2023/05/11 04:10:38;;;;;;;30.02;23.48;;;16.00;99.90;;;16.35;96.26;101340.13;5110404;28;19924;-73
2023/05/11 04:13:06;;;;;;;27.60;21.40;;;16.00;99.90;;;16.07;96.17;101298.88;5114501;28;20589;-74
2023/05/11 04:15:36;;;;;;;30.58;22.23;;;15.90;99.90;;;16.23;96.69;101343.03;5084597;28;20493;-74
2023/05/11 04:18:05;;;;;;;29.17;21.15;;;15.80;99.90;;;16.27;96.84;101344.75;5110435;28;20043;-75
2023/05/11 04:20:35;;;;;;;31.90;22.90;;;15.90;99.90;;;16.24;97.08;101342.09;5114388;28;20569;-73
2023/05/11 04:23:03;;;;;;;29.33;22.23;;;15.80;99.90;;;16.28;97.17;101335.81;5088199;28;20512;-74
2023/05/11 04:25:31;;;;;;;29.38;21.67;;;15.90;99.90;;;16.43;97.02;101346.19;5113533;28;20081;-73
2023/05/11 04:28:00;;;;;;;31.27;23.08;;;16.00;99.90;;;16.37;96.60;101348.97;5114313;28;20043;-73
2023/05/11 04:30:28;;;;;;;30.10;22.55;;;16.00;99.90;;;16.35;96.79;101345.47;5114227;28;20451;-73
2023/05/11 04:32:57;;;;;;;31.15;23.13;;;16.00;99.90;;;16.34;96.74;101342.84;5087948;28;20040;-73
2023/05/11 04:35:25;;;;;;;30.55;23.55;;;16.00;99.90;;;16.36;96.75;101346.31;5114146;28;20146;-73
2023/05/11 04:37:55;;;;;;;30.38;23.23;;;16.00;99.90;;;16.37;96.65;101342.75;5087917;28;20058;-73
2023/05/11 04:40:23;;;;;;;33.20;24.23;;;16.00;99.90;;;16.37;96.60;101343.66;5092567;28;20489;-74
2023/05/11 04:42:53;;;;;;;30.83;23.33;;;16.00;99.90;;;16.44;96.53;101352.38;5089398;28;20458;-74
2023/05/11 04:45:22;;;;;;;32.42;24.75;;;16.10;99.90;;;16.44;96.27;101347.94;5114139;28;20317;-74
2023/05/11 04:47:50;;;;;;;35.05;24.25;;;16.10;99.90;;;16.49;96.17;101354.09;5087343;28;20043;-74
2023/05/11 04:50:19;;;;;;;36.40;25.65;;;16.10;99.90;;;16.46;96.14;101353.25;5114003;28;20043;-74
2023/05/11 04:52:47;;;;;;;32.60;24.65;;;16.20;99.90;;;16.45;96.32;101349.72;5087714;28;20138;-74
2023/05/11 04:55:18;;;;;;;34.78;24.85;;;16.10;99.90;;;16.47;96.28;101355.91;5095680;28;20558;-73
2023/05/11 04:57:47;;;;;;;35.05;24.48;;;16.10;99.90;;;16.51;96.36;101359.41;5087607;28;20055;-74
2023/05/11 05:00:18;;;;;;;35.92;26.02;;;16.20;99.90;;;16.50;96.32;101379.91;5095618;28;20079;-74
2023/05/11 05:02:49;;;;;;;36.17;25.30;;;16.20;99.90;;;16.53;96.27;101358.44;5075583;28;20048;-75
2023/05/11 05:05:18;;;;;;;36.78;26.67;;;16.20;99.90;;;16.59;95.83;101377.03;5095521;28;20075;-74
2023/05/11 05:07:46;;;;;;;37.22;26.75;;;16.20;99.90;;;14.75;95.13;101073.03;5113565;28;20036;-73
2023/05/11 05:10:15;;;;;;;35.45;25.55;;;16.10;99.90;;;16.42;95.42;101371.13;5095170;28;20055;-73
2023/05/11 05:12:45;;;;;;;37.78;25.13;;;16.10;99.90;;;16.36;96.08;101373.91;5113715;28;20039;-73
2023/05/11 05:15:14;;;;;;;38.80;25.05;;;16.00;99.90;;;16.39;96.58;101379.22;5113410;28;20040;-74
2023/05/11 05:17:42;;;;;;;35.85;25.52;;;15.90;99.90;;;16.26;96.89;101404.34;5095174;28;20048;-74
2023/05/11 05:20:11;;;;;;;34.03;24.08;;;15.90;99.90;;;16.35;97.19;101388.19;5091778;28;20044;-73
2023/05/11 05:22:40;;;;;;;33.50;23.95;;;15.90;99.90;;;16.31;97.39;101389.16;5074990;28;20078;-75
2023/05/11 05:25:10;;;;;;;35.97;24.90;;;15.90;99.90;;;16.27;97.18;101392.78;5095116;28;20043;-74
2023/05/11 05:27:39;;;;;;;35.95;25.83;;;15.80;99.90;;;16.16;97.58;101389.47;5086949;28;20067;-74
2023/05/11 05:30:13;;;;;;;35.40;24.75;;;15.70;99.90;;;16.21;97.73;101388.47;5095128;28;20497;-74
2023/05/11 05:32:41;;;;;;;34.97;24.50;;;15.80;99.90;;;16.05;97.98;101394.97;5086720;28;20047;-74
2023/05/11 05:35:10;;;;;;;34.25;25.15;;;15.70;99.90;;;15.64;99.00;101362.81;5094852;28;20362;-73
2023/05/11 05:37:39;;;;;;;39.20;27.10;;;15.50;99.90;;;15.79;100.00;101402.59;5103703;28;20471;-74
2023/05/11 05:40:09;;;;;;;40.17;26.23;;;15.40;99.90;;;15.99;99.94;101407.53;5095292;28;20393;-74
2023/05/11 05:42:43;;;;;;;43.40;27.83;;;15.60;99.90;;;15.50;100.00;101406.63;5076093;28;20485;-74
2023/05/11 05:45:16;;;;;;;41.60;27.35;;;15.20;99.90;;;15.53;100.00;101414.56;5094983;28;20063;-74
2023/05/11 05:47:45;;;;;;;42.55;26.70;;;15.10;99.90;;;15.65;100.00;101406.38;5095081;28;20424;-74
2023/05/11 05:50:14;;;;;;;43.45;28.02;;;15.30;99.90;;;15.85;100.00;101413.13;5094862;28;20039;-74
2023/05/11 05:52:44;;;;;;;43.00;28.58;;;15.50;99.90;;;15.82;100.00;101413.19;5113164;28;20048;-74
2023/05/11 05:55:13;;;;;;;43.35;28.63;;;15.50;99.90;;;15.71;100.00;101414.28;5074858;28;20047;-74
2023/05/11 05:57:43;;;;;;;48.78;28.05;;;15.40;99.90;;;15.42;100.00;101412.09;5094883;28;20083;-74
2023/05/11 06:00:13;;;;;;;40.13;26.75;;;15.20;99.90;;;15.59;100.00;101415.34;5086688;28;20152;-74
2023/05/11 06:02:43;;;;;;;45.70;27.80;;;15.20;99.90;;;15.51;100.00;101427.94;5113118;28;20137;-74
2023/05/11 06:05:21;;;;;;;42.22;27.42;;;15.10;99.90;;;15.72;100.00;101422.25;5083044;28;20139;-74
2023/05/11 06:07:49;;;;;;;43.90;28.45;;;15.30;99.90;;;15.89;100.00;101429.97;5082586;28;20072;-74
2023/05/11 06:10:37;;;;;;;42.78;27.35;;;15.40;99.90;;;15.92;100.00;101436.13;5082023;28;20139;-74
2023/05/11 06:13:07;;;;;;;40.00;27.58;;;15.60;99.90;;;15.74;100.00;101425.78;5091624;28;20455;-73
2023/05/11 06:15:36;;;;;;;;;;;15.40;99.90;;;15.66;100.00;101422.34;5084245;28;20139;-75
2023/05/11 06:18:13;;;;;;;40.28;27.17;;;15.30;99.90;;;15.68;100.00;101428.53;5091181;28;19924;-74
2023/05/11 06:20:43;;;;;;;43.25;27.30;;;15.30;99.90;;;15.79;100.00;101433.72;5082959;28;20079;-74
2023/05/11 06:23:12;;;;;;;44.22;27.58;;;15.40;99.90;;;15.93;100.00;101429.03;5090971;28;20486;-73
2023/05/11 06:25:43;;;;;;;39.30;26.73;;;15.50;99.90;;;16.04;100.00;101427.94;5078729;28;20048;-72
2023/05/11 06:28:12;;;;;;;39.85;26.83;;;15.70;99.90;;;15.94;100.00;101429.00;5079127;28;20397;-73
2023/05/11 06:30:41;;;;;;;46.13;28.33;;;15.60;99.90;;;15.94;100.00;101433.44;5071182;28;20097;-73
2023/05/11 06:33:10;;;;;;;45.40;27.33;;;15.60;99.90;;;16.04;100.00;101424.38;5091130;28;20048;-73
2023/05/11 06:35:41;;;;;;;50.05;28.63;;;15.70;99.90;;;15.86;100.00;101435.34;5082935;28;20044;-74
2023/05/11 06:38:12;;;;;;;47.90;28.15;;;15.60;99.90;;;16.07;100.00;101441.19;5091102;28;20051;-73
2023/05/11 06:40:41;;;;;;;46.03;28.45;;;15.60;99.90;;;16.23;100.00;101436.47;5082980;28;20048;-73
2023/05/11 06:43:10;;;;;;;48.08;29.67;;;15.80;99.90;;;16.37;100.00;101442.44;5091152;28;20606;-74
2023/05/11 06:45:46;;;;;;;44.85;28.92;;;16.00;99.90;;;16.53;99.76;101443.91;5090841;28;20048;-73
2023/05/11 06:48:15;;;;;;;53.47;28.83;;;16.20;99.90;;;16.46;98.86;101444.94;5092581;28;20501;-74
2023/05/11 06:50:45;;;;;;;52.40;28.75;;;16.10;99.90;;;16.57;97.89;101447.44;5096357;28;20055;-73
2023/05/11 06:53:15;;;;;;;48.97;29.63;;;16.20;99.90;;;16.68;97.38;101446.31;5094400;28;20048;-73
2023/05/11 06:55:44;;;;;;;49.00;28.65;;;16.40;99.90;;;16.73;96.68;101451.53;5086329;28;20048;-72
2023/05/11 06:58:13;;;;;;;47.78;29.60;;;16.40;99.90;;;16.78;96.83;101452.34;5095914;28;20089;-73
2023/05/11 07:00:41;;;;;;;51.67;29.95;;;16.50;99.90;;;16.86;96.73;101451.25;5095877;28;20097;-74
2023/05/11 07:03:09;;;;;;;50.50;30.33;;;16.60;99.90;;;16.94;96.45;101443.06;5096093;28;20051;-72
2023/05/11 07:05:39;;;;;;;47.45;30.50;;;16.60;99.90;;;17.07;95.85;101440.09;5092001;28;20040;-73
2023/05/11 07:08:08;;;;;;;50.40;30.42;;;16.70;99.90;;;17.21;95.62;101444.28;5095305;28;20404;-73
2023/05/11 07:10:37;;;;;;;48.13;31.27;;;16.90;99.90;;;17.31;94.43;101445.81;5094253;28;20060;-73
2023/05/11 07:13:05;;;;;;;56.60;33.38;;;17.00;99.90;;;17.41;93.60;101452.72;5094296;28;20489;-73
2023/05/11 07:15:34;;;;;;;48.85;31.02;;;17.10;99.90;;;17.56;92.85;101450.59;5086216;28;20048;-73
2023/05/11 07:18:03;;;;;;;46.78;31.23;;;17.30;99.90;;;17.48;92.08;101451.69;5094177;28;20102;-73
2023/05/11 07:20:32;;;;;;;51.10;30.98;;;17.20;99.90;;;17.59;92.25;101455.03;5095125;28;20048;-73
2023/05/11 07:23:00;;;;;;;46.45;28.50;;;17.30;99.90;;;17.78;92.11;101448.31;5094005;28;20044;-73
2023/05/11 07:25:30;;;;;;;44.55;27.98;;;17.50;99.90;;;17.83;91.09;101454.41;5082020;28;20040;-74
2023/05/11 07:27:58;;;;;;;41.67;28.57;;;17.50;99.90;;;17.91;90.04;101453.31;5091147;28;20095;-74
2023/05/11 07:30:27;;;;;;;43.15;27.95;;;17.60;99.90;;;18.00;89.33;101463.78;5094840;28;20040;-74
2023/05/11 07:32:55;;;;;;;44.65;26.95;;;17.70;99.90;;;18.06;88.59;101461.88;5095244;28;20047;-74
2023/05/11 07:35:24;;;;;;;37.47;27.40;;;17.80;99.90;;;18.00;88.12;101452.22;5093809;28;20044;-74
2023/05/11 07:37:52;;;;;;;39.30;27.05;;;17.80;99.90;;;18.11;88.83;101462.63;5094783;28;20046;-74
2023/05/11 07:40:21;;;;;;;44.45;29.27;;;17.80;99.90;;;17.91;87.81;101426.53;5094852;28;20040;-74
2023/05/11 07:42:51;;;;;;;39.35;27.65;;;17.80;99.90;;;18.18;87.62;101453.50;5094602;28;20465;-74
2023/05/11 07:45:19;;;;;;;38.20;25.77;;;17.90;99.90;;;18.31;88.03;101461.19;5094760;28;20733;-73
2023/05/11 07:47:48;;;;;;;40.28;26.65;;;18.00;99.90;;;18.43;87.35;101468.94;5094597;28;20464;-74
2023/05/11 07:50:16;;;;;;;36.25;24.73;;;18.10;99.90;;;18.51;86.75;101463.34;5093228;28;20138;-74
2023/05/11 07:52:45;;;;;;;34.70;25.50;;;18.20;99.90;;;18.47;86.35;101475.97;5103665;28;20040;-74
2023/05/11 07:55:13;;;;;;;39.60;24.55;;;18.20;99.90;;;18.56;85.57;101473.03;5094529;28;20044;-74
2023/05/11 07:57:42;;;;;;;28.63;21.70;;;18.30;99.90;;;18.55;85.36;101465.91;5094737;28;20060;-74
2023/05/11 08:00:14;;;;;;;31.55;20.83;;;18.30;99.90;;;18.42;84.22;101461.81;5093174;28;20625;-74
2023/05/11 08:02:42;;;;;;;33.58;21.20;;;18.20;99.90;;;18.37;84.50;101450.31;5085405;28;20435;-74
2023/05/11 08:05:11;;;;;;;33.47;21.35;;;18.20;99.90;;;18.51;85.02;101458.00;5094609;28;20052;-74
2023/05/11 08:07:40;;;;;;;37.60;21.90;;;18.20;99.90;;;18.53;84.80;101459.72;5094263;28;20044;-74
2023/05/11 08:10:10;;;;;;;31.67;21.80;;;18.20;99.90;;;18.21;86.50;101462.38;5103778;28;20120;-74
2023/05/11 08:12:38;;;;;;;34.63;23.02;;;18.00;99.90;;;18.39;86.15;101459.19;5111192;28;20118;-74
2023/05/11 08:15:08;;;;;;;38.03;22.58;;;18.10;99.90;;;18.54;85.14;101474.00;5114451;28;20043;-74
2023/05/11 08:17:38;;;;;;;33.92;21.50;;;18.20;99.90;;;18.53;85.41;101475.81;5088356;28;20123;-74
2023/05/11 08:20:09;;;;;;;40.65;21.88;;;18.20;99.90;;;18.53;85.32;101473.13;5114733;28;20067;-74
2023/05/11 08:22:37;;;;;;;38.75;23.20;;;18.30;99.90;;;18.36;85.03;101477.13;5088278;28;20154;-75
2023/05/11 08:25:07;;;;;;;33.67;21.83;;;18.10;99.90;;;18.18;84.31;101467.78;5114292;28;20039;-74
2023/05/11 08:27:36;;;;;;;32.97;21.48;;;17.90;99.90;;;18.25;84.32;101476.56;5114330;28;20070;-74
2023/05/11 08:30:06;;;;;;;37.60;22.45;;;17.90;99.90;;;18.30;83.22;101480.88;5114438;28;20113;-74
2023/05/11 08:32:39;;;;;;;32.05;21.35;;;18.00;99.90;;;17.78;83.69;101381.41;5111239;28;20051;-75
2023/05/11 08:35:12;;;;;;;31.27;21.55;;;18.10;99.90;;;18.33;84.02;101478.09;5114213;28;20088;-74
2023/05/11 08:37:40;;;;;;;28.92;21.15;;;18.10;99.90;;;18.52;83.64;101486.56;5114372;28;20062;-74
2023/05/11 08:40:12;;;;;;;27.48;20.13;;;18.20;99.90;;;18.58;83.09;101479.22;5113926;28;20043;-74
2023/05/11 08:42:46;;;;;;;32.47;21.42;;;18.30;99.90;;;18.69;82.66;101477.16;5114286;28;20040;-74
2023/05/11 08:45:16;;;;;;;35.58;23.10;;;18.50;99.90;;;18.75;82.91;101476.97;5084439;28;20048;-74
2023/05/11 08:47:48;;;;;;;36.83;22.77;;;18.60;99.90;;;18.78;82.14;101473.31;5113577;28;20118;-74
2023/05/11 08:50:16;;;;;;;34.28;22.88;;;18.60;99.90;;;18.80;81.77;101477.72;5095847;28;20123;-74
2023/05/11 08:52:45;;;;;;;39.50;24.13;;;18.60;99.90;;;18.77;82.55;101477.81;5114030;28;20122;-74
2023/05/11 08:55:13;;;;;;;32.55;22.92;;;18.60;99.90;;;18.71;82.60;101477.09;5113648;28;20135;-74
2023/05/11 08:57:45;;;;;;;36.17;25.17;;;18.50;99.90;;;18.77;83.03;101476.94;5087433;28;20074;-74
2023/05/11 09:00:15;;;;;;;31.00;22.70;;;18.50;99.90;;;18.90;83.07;101487.25;5110261;28;20077;-74
2023/05/11 09:02:46;;;;;;;35.20;23.80;;;18.60;99.90;;;19.06;82.97;101482.34;5113852;28;20088;-74
2023/05/11 09:05:15;;;;;;;33.47;24.42;;;18.80;99.90;;;19.24;82.59;101480.91;5114027;28;20040;-73
2023/05/11 09:07:46;;;;;;;28.65;21.20;;;19.00;99.90;;;19.32;80.40;101479.75;5095295;28;20396;-73
2023/05/11 09:10:16;;;;;;;29.38;20.42;;;19.10;99.90;;;19.02;77.32;101480.66;5112738;28;20101;-73
2023/05/11 09:12:44;;;;;;;25.40;19.08;;;18.90;99.90;;;19.16;77.42;101483.81;5113783;28;20051;-73
2023/05/11 09:15:12;;;;;;;24.88;18.23;;;18.90;99.90;;;19.16;76.30;101482.94;5113335;28;20106;-73
2023/05/11 09:17:41;;;;;;;24.13;16.80;;;18.90;99.90;;;19.11;75.57;101479.50;5095229;28;20134;-74
2023/05/11 09:20:12;;;;;;;19.88;15.40;;;18.80;99.90;;;19.20;75.16;101487.28;5087103;28;20055;-73
2023/05/11 09:22:46;;;;;;;24.85;19.13;;;18.90;99.90;;;19.27;76.06;101488.84;5095215;28;20073;-73
2023/05/11 09:25:16;;;;;;;24.13;18.30;;;19.00;99.90;;;19.47;76.27;101479.28;5113177;28;20069;-74
2023/05/11 09:27:46;;;;;;;21.58;15.35;;;19.20;99.90;;;19.64;74.70;101481.47;5113143;28;20050;-74
2023/05/11 09:30:18;;;;;;;21.90;17.00;;;19.40;99.90;;;19.67;74.44;101465.25;5113340;28;20427;-73
2023/05/11 09:32:53;;;;;;;23.10;17.95;;;19.50;99.90;;;19.72;73.93;101487.47;5095170;28;20316;-74
2023/05/11 09:35:24;;;;;;;;;;;19.60;99.90;;;19.95;73.87;101475.97;5087421;28;20503;-73
2023/05/11 09:38:05;;;;;;;30.55;20.27;;;19.70;99.90;;;20.00;73.87;101479.38;5113021;28;20340;-74
2023/05/11 09:40:36;;;;;;;30.13;18.98;;;19.80;99.90;;;19.89;74.64;101476.16;5109430;28;20039;-74
2023/05/11 09:43:16;;;;;;;23.92;17.23;;;19.70;99.90;;;19.74;73.57;101456.94;5113122;28;20035;-74
2023/05/11 09:45:46;;;;;;;18.80;14.38;;;19.70;99.90;;;19.71;72.91;101483.00;5086760;28;20115;-74
2023/05/11 09:48:26;;;;;;;20.75;14.80;;;19.60;99.90;;;19.85;72.37;101483.44;5094989;28;20040;-73
2023/05/11 09:51:05;;;;;;;23.83;17.15;;;19.60;99.90;;;19.28;72.59;101418.19;5084349;28;20044;-74
2023/05/11 09:53:44;;;;;;;19.48;14.38;;;19.50;99.90;;;19.57;72.05;101456.59;5113532;28;20085;-73
2023/05/11 09:56:14;;;;;;;21.55;14.38;;;19.50;99.90;;;19.36;70.57;101426.88;5110262;28;20046;-74
2023/05/11 09:58:48;;;;;;;27.10;17.00;;;19.50;99.90;;;19.51;73.41;101480.09;5112830;28;20052;-73
2023/05/11 10:01:18;;;;;;;22.05;15.95;;;19.30;99.90;;;19.36;74.13;101480.53;5113069;28;20126;-73
2023/05/11 10:03:48;;;;;;;25.58;17.27;;;19.20;99.90;;;19.43;73.01;101476.78;5112922;28;20508;-74
2023/05/11 10:06:19;;;;;;;23.23;15.32;;;19.20;99.90;;;19.38;72.26;101476.00;5112817;28;20043;-74
2023/05/11 10:08:48;;;;;;;22.10;14.80;;;19.20;99.90;;;19.67;73.00;101481.34;5094690;28;20538;-73
2023/05/11 10:11:17;;;;;;;19.88;12.57;;;19.40;99.90;;;19.76;71.83;101487.28;5113180;28;20473;-74
2023/05/11 10:13:46;;;;;;;19.38;12.55;;;19.50;99.90;;;19.87;71.58;101472.66;5112644;28;20386;-74
2023/05/11 10:16:16;;;;;;;16.00;10.48;;;19.70;99.90;;;19.74;69.58;101472.19;5112634;28;20043;-74